East Bethel, Minnesota
Current Conditions -  °F | °C
As of 2:45 PM on Saturday 22 Nov 2014 (Local Time) from KANE Reporting Station
Haze Haze  
Wind Chill: 33°   Ceiling: 600
Heat Index: 37°   Visibility: 4mi
Dew Point: 36°   Wind: 6mph
Humidity: 93%   Direction: 160°SSE
Pressure: 29.66"   Gusts: NA
Location:  45.3385°N, 93.2617°W
Report Text: KANE 222045Z 16005KT 4SM BR OVC006 03/02 A2966
Loading
Personal Weather Stations






























Interactive Weather Map New forecast layout! Learn more

10-Day Weather Forecast

Advertisements
Track Severe Weather on mobile